sensor_id;sensor_type;location;lat;lon;timestamp;pressure;altitude;pressure_sealevel;temperature;humidity
76195;BME280;64964;48.694;21.206;2024-02-28T00:02:23;98052.66;;;11.59;60.29
76195;BME280;64964;48.694;21.206;2024-02-28T00:04:48;98057.47;;;11.55;60.49
76195;BME280;64964;48.694;21.206;2024-02-28T00:07:14;98040.16;;;11.44;60.25
76195;BME280;64964;48.694;21.206;2024-02-28T00:09:39;98061.13;;;11.54;60.57
76195;BME280;64964;48.694;21.206;2024-02-28T00:12:05;98059.47;;;11.53;60.72
76195;BME280;64964;48.694;21.206;2024-02-28T00:14:30;98048.75;;;11.46;60.82
76195;BME280;64964;48.694;21.206;2024-02-28T00:16:55;98045.28;;;11.46;60.49
76195;BME280;64964;48.694;21.206;2024-02-28T00:19:21;98044.75;;;11.51;60.66
76195;BME280;64964;48.694;21.206;2024-02-28T00:21:47;98056.94;;;11.60;60.50
76195;BME280;64964;48.694;21.206;2024-02-28T00:24:13;98050.22;;;11.49;60.38
76195;BME280;64964;48.694;21.206;2024-02-28T00:26:42;98035.38;;;11.40;60.68
76195;BME280;64964;48.694;21.206;2024-02-28T00:29:08;98042.66;;;11.46;60.23
76195;BME280;64964;48.694;21.206;2024-02-28T00:31:33;98070.81;;;11.62;60.17
76195;BME280;64964;48.694;21.206;2024-02-28T00:33:59;98040.16;;;11.44;60.34
76195;BME280;64964;48.694;21.206;2024-02-28T00:36:24;98058.63;;;11.53;60.26
76195;BME280;64964;48.694;21.206;2024-02-28T00:38:50;98052.72;;;11.51;60.52
76195;BME280;64964;48.694;21.206;2024-02-28T00:41:15;98038.69;;;11.42;60.31
76195;BME280;64964;48.694;21.206;2024-02-28T00:43:40;98065.75;;;11.52;60.10
76195;BME280;64964;48.694;21.206;2024-02-28T00:46:06;98053.75;;;11.41;60.90
76195;BME280;64964;48.694;21.206;2024-02-28T00:48:36;98062.81;;;11.47;60.57
76195;BME280;64964;48.694;21.206;2024-02-28T00:51:02;98069.28;;;11.44;60.34
76195;BME280;64964;48.694;21.206;2024-02-28T00:53:28;98063.84;;;11.38;60.50
76195;BME280;64964;48.694;21.206;2024-02-28T00:55:53;98075.56;;;11.43;60.35
76195;BME280;64964;48.694;21.206;2024-02-28T00:58:20;98071.94;;;11.36;60.54
76195;BME280;64964;48.694;21.206;2024-02-28T01:00:46;98076.09;;;11.39;60.41
76195;BME280;64964;48.694;21.206;2024-02-28T01:03:11;98075.59;;;11.35;60.29
76195;BME280;64964;48.694;21.206;2024-02-28T01:05:39;98077.44;;;11.35;60.53
76195;BME280;64964;48.694;21.206;2024-02-28T01:08:05;98065.72;;;11.29;60.59
76195;BME280;64964;48.694;21.206;2024-02-28T01:10:31;98080.25;;;11.33;60.37
76195;BME280;64964;48.694;21.206;2024-02-28T01:12:57;98068.19;;;11.31;60.44
76195;BME280;64964;48.694;21.206;2024-02-28T01:15:22;98071.84;;;11.30;60.58
76195;BME280;64964;48.694;21.206;2024-02-28T01:17:48;98073.66;;;11.29;60.49
76195;BME280;64964;48.694;21.206;2024-02-28T01:20:13;98077.47;;;11.27;60.51
76195;BME280;64964;48.694;21.206;2024-02-28T01:22:39;98077.81;;;11.23;60.76
76195;BME280;64964;48.694;21.206;2024-02-28T01:25:05;98071.03;;;11.21;60.67
76195;BME280;64964;48.694;21.206;2024-02-28T01:27:30;98060.31;;;11.14;60.65
76195;BME280;64964;48.694;21.206;2024-02-28T01:29:56;98083.28;;;11.22;60.53
76195;BME280;64964;48.694;21.206;2024-02-28T01:32:21;98068.25;;;11.14;60.53
76195;BME280;64964;48.694;21.206;2024-02-28T01:34:46;98077.50;;;11.18;60.67
76195;BME280;64964;48.694;21.206;2024-02-28T01:37:12;98078.66;;;11.16;60.56
76195;BME280;64964;48.694;21.206;2024-02-28T01:39:37;98079.66;;;11.15;60.69
76195;BME280;64964;48.694;21.206;2024-02-28T01:42:03;98085.13;;;11.13;60.94
76195;BME280;64964;48.694;21.206;2024-02-28T01:44:29;98078.22;;;11.04;60.59
76195;BME280;64964;48.694;21.206;2024-02-28T01:46:54;98097.88;;;11.10;60.65
76195;BME280;64964;48.694;21.206;2024-02-28T01:49:22;98088.94;;;11.03;60.89
76195;BME280;64964;48.694;21.206;2024-02-28T01:51:49;98073.09;;;10.94;60.86
76195;BME280;64964;48.694;21.206;2024-02-28T01:54:15;98075.44;;;10.89;60.93
76195;BME280;64964;48.694;21.206;2024-02-28T01:56:41;98095.44;;;11.00;60.88
76195;BME280;64964;48.694;21.206;2024-02-28T01:59:07;98088.66;;;10.97;60.92
76195;BME280;64964;48.694;21.206;2024-02-28T02:01:33;98076.25;;;10.90;61.00
76195;BME280;64964;48.694;21.206;2024-02-28T02:03:59;98087.66;;;10.90;60.96
76195;BME280;64964;48.694;21.206;2024-02-28T02:06:24;98086.53;;;10.85;61.40
76195;BME280;64964;48.694;21.206;2024-02-28T02:08:50;98068.03;;;10.68;61.23
76195;BME280;64964;48.694;21.206;2024-02-28T02:11:17;98087.69;;;10.74;61.60
76195;BME280;64964;48.694;21.206;2024-02-28T02:13:51;98090.19;;;10.67;62.15
76195;BME280;64964;48.694;21.206;2024-02-28T02:16:17;98084.25;;;10.65;61.56
76195;BME280;64964;48.694;21.206;2024-02-28T02:18:43;98070.06;;;10.50;61.64
76195;BME280;64964;48.694;21.206;2024-02-28T02:21:11;98044.81;;;10.31;61.67
76195;BME280;64964;48.694;21.206;2024-02-28T02:23:37;98046.13;;;10.27;61.87
76195;BME280;64964;48.694;21.206;2024-02-28T02:26:06;98090.53;;;10.48;61.92
76195;BME280;64964;48.694;21.206;2024-02-28T02:28:32;98096.34;;;10.43;61.81
76195;BME280;64964;48.694;21.206;2024-02-28T02:30:57;98093.53;;;10.37;61.97
76195;BME280;64964;48.694;21.206;2024-02-28T02:33:23;98088.72;;;10.32;62.26
76195;BME280;64964;48.694;21.206;2024-02-28T02:35:48;98097.97;;;10.28;62.33
76195;BME280;64964;48.694;21.206;2024-02-28T02:38:14;98097.78;;;10.21;62.20
76195;BME280;64964;48.694;21.206;2024-02-28T02:40:39;98094.34;;;10.21;62.56
76195;BME280;64964;48.694;21.206;2024-02-28T02:43:04;98077.16;;;10.01;62.56
76195;BME280;64964;48.694;21.206;2024-02-28T02:45:30;98103.72;;;10.15;62.55
76195;BME280;64964;48.694;21.206;2024-02-28T02:47:55;98104.91;;;10.13;62.49
76195;BME280;64964;48.694;21.206;2024-02-28T02:50:20;98108.03;;;10.08;62.27
76195;BME280;64964;48.694;21.206;2024-02-28T02:52:46;98110.00;;;10.06;62.40
76195;BME280;64964;48.694;21.206;2024-02-28T02:55:11;98108.34;;;10.05;62.52
76195;BME280;64964;48.694;21.206;2024-02-28T02:57:36;98112.13;;;10.03;63.30
76195;BME280;64964;48.694;21.206;2024-02-28T03:00:02;98106.84;;;10.03;62.83
76195;BME280;64964;48.694;21.206;2024-02-28T03:02:28;98112.94;;;10.03;62.91
76195;BME280;64964;48.694;21.206;2024-02-28T03:04:53;98117.41;;;10.03;62.87
76195;BME280;64964;48.694;21.206;2024-02-28T03:07:18;98119.22;;;10.02;62.92
76195;BME280;64964;48.694;21.206;2024-02-28T03:09:43;98119.41;;;10.01;63.08
76195;BME280;64964;48.694;21.206;2024-02-28T03:12:09;98088.81;;;9.82;63.15
76195;BME280;64964;48.694;21.206;2024-02-28T03:14:37;98121.22;;;10.00;63.32
76195;BME280;64964;48.694;21.206;2024-02-28T03:17:03;98123.03;;;10.00;63.19
76195;BME280;64964;48.694;21.206;2024-02-28T03:19:28;98130.28;;;9.97;63.53
76195;BME280;64964;48.694;21.206;2024-02-28T03:21:54;98134.75;;;9.97;63.45
76195;BME280;64964;48.694;21.206;2024-02-28T03:24:19;98128.13;;;9.93;63.41
76195;BME280;64964;48.694;21.206;2024-02-28T03:26:45;98135.75;;;9.96;63.26
76195;BME280;64964;48.694;21.206;2024-02-28T03:29:10;98132.41;;;9.94;63.70
76195;BME280;64964;48.694;21.206;2024-02-28T03:31:35;98125.16;;;9.88;63.54
76195;BME280;64964;48.694;21.206;2024-02-28T03:34:01;98129.28;;;9.90;63.65
76195;BME280;64964;48.694;21.206;2024-02-28T03:36:28;98131.56;;;9.85;63.72
76195;BME280;64964;48.694;21.206;2024-02-28T03:38:53;98136.03;;;9.85;63.77
76195;BME280;64964;48.694;21.206;2024-02-28T03:41:19;98134.22;;;9.85;63.53
76195;BME280;64964;48.694;21.206;2024-02-28T03:43:44;98130.75;;;9.85;63.86
76195;BME280;64964;48.694;21.206;2024-02-28T03:46:09;98127.44;;;9.75;63.68
76195;BME280;64964;48.694;21.206;2024-02-28T03:48:35;98135.69;;;9.80;63.78
76195;BME280;64964;48.694;21.206;2024-02-28T03:51:00;98137.84;;;9.76;64.06
76195;BME280;64964;48.694;21.206;2024-02-28T03:53:25;98137.19;;;9.74;63.84
76195;BME280;64964;48.694;21.206;2024-02-28T03:55:51;98138.13;;;9.73;64.18
76195;BME280;64964;48.694;21.206;2024-02-28T03:58:16;98143.59;;;9.71;64.22
76195;BME280;64964;48.694;21.206;2024-02-28T04:00:42;98134.81;;;9.63;64.49
76195;BME280;64964;48.694;21.206;2024-02-28T04:03:09;98143.59;;;9.71;64.45
76195;BME280;64964;48.694;21.206;2024-02-28T04:05:35;98133.66;;;9.65;64.41
76195;BME280;64964;48.694;21.206;2024-02-28T04:08:00;98144.25;;;9.73;64.19
76195;BME280;64964;48.694;21.206;2024-02-28T04:10:25;98146.88;;;9.73;64.64
76195;BME280;64964;48.694;21.206;2024-02-28T04:12:51;98138.81;;;9.67;64.30
76195;BME280;64964;48.694;21.206;2024-02-28T04:15:16;98151.50;;;9.71;64.46
76195;BME280;64964;48.694;21.206;2024-02-28T04:17:42;98119.28;;;9.52;64.53
76195;BME280;64964;48.694;21.206;2024-02-28T04:20:11;98134.97;;;9.61;64.77
76195;BME280;64964;48.694;21.206;2024-02-28T04:22:37;98154.81;;;9.73;64.72
76195;BME280;64964;48.694;21.206;2024-02-28T04:25:06;98142.44;;;9.66;64.63
76195;BME280;64964;48.694;21.206;2024-02-28T04:27:33;98157.78;;;9.70;64.82
76195;BME280;64964;48.694;21.206;2024-02-28T04:29:58;98144.56;;;9.62;64.87
76195;BME280;64964;48.694;21.206;2024-02-28T04:32:23;98158.91;;;9.68;64.70
76195;BME280;64964;48.694;21.206;2024-02-28T04:34:49;98140.59;;;9.58;64.93
76195;BME280;64964;48.694;21.206;2024-02-28T04:37:15;98166.19;;;9.66;65.05
76195;BME280;64964;48.694;21.206;2024-02-28T04:39:40;98158.28;;;9.66;64.76
76195;BME280;64964;48.694;21.206;2024-02-28T04:42:05;98150.31;;;9.58;65.22
76195;BME280;64964;48.694;21.206;2024-02-28T04:44:31;98156.75;;;9.63;64.99
76195;BME280;64964;48.694;21.206;2024-02-28T04:46:56;98158.28;;;9.66;65.48
76195;BME280;64964;48.694;21.206;2024-02-28T04:49:21;98157.28;;;9.67;64.90
76195;BME280;64964;48.694;21.206;2024-02-28T04:51:48;98156.28;;;9.68;65.27
76195;BME280;64964;48.694;21.206;2024-02-28T04:54:13;98154.63;;;9.67;65.28
76195;BME280;64964;48.694;21.206;2024-02-28T04:56:42;98157.78;;;9.70;65.17
76195;BME280;64964;48.694;21.206;2024-02-28T04:59:09;98164.72;;;9.71;65.40
76195;BME280;64964;48.694;21.206;2024-02-28T05:01:35;98166.34;;;9.72;65.30
76195;BME280;64964;48.694;21.206;2024-02-28T05:04:05;98160.25;;;9.72;65.34
76195;BME280;64964;48.694;21.206;2024-02-28T05:06:31;98158.94;;;9.76;65.04
76195;BME280;64964;48.694;21.206;2024-02-28T05:08:56;98166.56;;;9.79;64.78
76195;BME280;64964;48.694;21.206;2024-02-28T05:11:21;98162.41;;;9.77;64.75
76195;BME280;64964;48.694;21.206;2024-02-28T05:13:47;98156.47;;;9.75;64.86
76195;BME280;64964;48.694;21.206;2024-02-28T05:16:13;98173.19;;;9.83;64.73
76195;BME280;64964;48.694;21.206;2024-02-28T05:18:39;98183.75;;;9.91;64.35
76195;BME280;64964;48.694;21.206;2024-02-28T05:21:04;98171.88;;;9.87;64.01
76195;BME280;64964;48.694;21.206;2024-02-28T05:23:29;98167.91;;;9.91;64.28
76195;BME280;64964;48.694;21.206;2024-02-28T05:25:56;98181.47;;;10.05;63.60
76195;BME280;64964;48.694;21.206;2024-02-28T05:28:21;98183.13;;;10.06;63.67
76195;BME280;64964;48.694;21.206;2024-02-28T05:30:46;98186.44;;;10.08;63.72
76195;BME280;64964;48.694;21.206;2024-02-28T05:33:12;98191.06;;;10.06;63.95
76195;BME280;64964;48.694;21.206;2024-02-28T05:35:37;98170.56;;;9.91;64.10
76195;BME280;64964;48.694;21.206;2024-02-28T05:38:03;98197.66;;;10.10;63.94
76195;BME280;64964;48.694;21.206;2024-02-28T05:40:28;98181.47;;;10.05;63.64
76195;BME280;64964;48.694;21.206;2024-02-28T05:42:53;98192.06;;;10.13;63.42
76195;BME280;64964;48.694;21.206;2024-02-28T05:45:19;98196.19;;;10.15;63.30
76195;BME280;64964;48.694;21.206;2024-02-28T05:47:45;98096.19;;;9.54;63.70
76195;BME280;64964;48.694;21.206;2024-02-28T05:50:11;98199.34;;;10.19;63.64
76195;BME280;64964;48.694;21.206;2024-02-28T05:52:37;98201.50;;;10.23;63.68
76195;BME280;64964;48.694;21.206;2024-02-28T05:55:03;98202.31;;;10.24;63.55
76195;BME280;64964;48.694;21.206;2024-02-28T05:57:28;98203.53;;;10.30;63.26
76195;BME280;64964;48.694;21.206;2024-02-28T05:59:54;98199.88;;;10.31;63.44
76195;BME280;64964;48.694;21.206;2024-02-28T06:02:20;98203.34;;;10.31;63.46
76195;BME280;64964;48.694;21.206;2024-02-28T06:04:45;98171.59;;;10.15;63.31
76195;BME280;64964;48.694;21.206;2024-02-28T06:07:10;98190.13;;;10.31;63.62
76195;BME280;64964;48.694;21.206;2024-02-28T06:09:36;98217.78;;;10.45;63.56
76195;BME280;64964;48.694;21.206;2024-02-28T06:12:01;98214.78;;;10.48;63.53
76195;BME280;64964;48.694;21.206;2024-02-28T06:14:29;98220.56;;;10.52;63.17
76195;BME280;64964;48.694;21.206;2024-02-28T06:16:54;98225.69;;;10.53;63.54
76195;BME280;64964;48.694;21.206;2024-02-28T06:19:19;98212.00;;;10.50;63.25
76195;BME280;64964;48.694;21.206;2024-02-28T06:21:45;98225.88;;;10.60;63.15
76195;BME280;64964;48.694;21.206;2024-02-28T06:24:10;98225.88;;;10.60;63.17
76195;BME280;64964;48.694;21.206;2024-02-28T06:26:36;98228.69;;;10.58;63.08
76195;BME280;64964;48.694;21.206;2024-02-28T06:29:01;98238.59;;;10.64;62.83
76195;BME280;64964;48.694;21.206;2024-02-28T06:31:29;98240.75;;;10.69;62.76
76195;BME280;64964;48.694;21.206;2024-02-28T06:33:56;98188.00;;;10.35;62.59
76195;BME280;64964;48.694;21.206;2024-02-28T06:36:21;98243.06;;;10.72;62.42
76195;BME280;64964;48.694;21.206;2024-02-28T06:38:47;98247.84;;;10.77;62.50
76195;BME280;64964;48.694;21.206;2024-02-28T06:41:12;98241.25;;;10.72;62.32
76195;BME280;64964;48.694;21.206;2024-02-28T06:43:37;98255.78;;;10.85;62.17
76195;BME280;64964;48.694;21.206;2024-02-28T06:46:03;98251.81;;;10.81;62.15
76195;BME280;64964;48.694;21.206;2024-02-28T06:48:29;98267.69;;;10.89;62.21
76195;BME280;64964;48.694;21.206;2024-02-28T06:50:55;98250.34;;;10.86;61.92
76195;BME280;64964;48.694;21.206;2024-02-28T06:53:21;98218.13;;;10.66;61.95
76195;BME280;64964;48.694;21.206;2024-02-28T06:55:46;98263.41;;;10.96;61.43
76195;BME280;64964;48.694;21.206;2024-02-28T06:58:14;98260.28;;;10.92;61.43
76195;BME280;64964;48.694;21.206;2024-02-28T07:00:39;98265.72;;;10.99;61.28
76195;BME280;64964;48.694;21.206;2024-02-28T07:03:04;98252.00;;;10.95;61.06
76195;BME280;64964;48.694;21.206;2024-02-28T07:05:30;98229.84;;;10.88;61.03
76195;BME280;64964;48.694;21.206;2024-02-28T07:07:55;98256.94;;;11.07;60.90
76195;BME280;64964;48.694;21.206;2024-02-28T07:10:20;98245.41;;;11.00;60.49
76195;BME280;64964;48.694;21.206;2024-02-28T07:12:46;98270.66;;;11.18;60.56
76195;BME280;64964;48.694;21.206;2024-02-28T07:15:11;98254.81;;;11.10;60.16
76195;BME280;64964;48.694;21.206;2024-02-28T07:17:37;98259.44;;;11.25;59.95
76195;BME280;64964;48.694;21.206;2024-02-28T07:20:02;98262.56;;;11.28;59.91
76195;BME280;64964;48.694;21.206;2024-02-28T07:22:27;98249.81;;;11.23;60.29
76195;BME280;64964;48.694;21.206;2024-02-28T07:24:53;98271.78;;;11.40;59.93
76195;BME280;64964;48.694;21.206;2024-02-28T07:27:18;98247.66;;;11.35;59.60
76195;BME280;64964;48.694;21.206;2024-02-28T07:29:44;98272.47;;;11.51;59.58
76195;BME280;64964;48.694;21.206;2024-02-28T07:32:09;98273.78;;;11.55;59.47
76195;BME280;64964;48.694;21.206;2024-02-28T07:34:34;98249.13;;;11.46;59.22
76195;BME280;64964;48.694;21.206;2024-02-28T07:37:00;98274.56;;;11.71;59.37
76195;BME280;64964;48.694;21.206;2024-02-28T07:39:25;98281.66;;;11.79;59.13
76195;BME280;64964;48.694;21.206;2024-02-28T07:41:52;98282.50;;;11.88;58.65
76195;BME280;64964;48.694;21.206;2024-02-28T07:44:17;98273.53;;;11.89;58.41
76195;BME280;64964;48.694;21.206;2024-02-28T07:46:43;98261.94;;;11.90;58.43
76195;BME280;64964;48.694;21.206;2024-02-28T07:49:09;98289.34;;;12.13;58.02
76195;BME280;64964;48.694;21.206;2024-02-28T07:51:36;98295.25;;;12.24;58.13
76195;BME280;64964;48.694;21.206;2024-02-28T07:54:01;98286.25;;;12.33;57.70
76195;BME280;64964;48.694;21.206;2024-02-28T07:56:26;98294.84;;;12.43;57.48
76195;BME280;64964;48.694;21.206;2024-02-28T07:58:52;98294.47;;;12.54;57.27
76195;BME280;64964;48.694;21.206;2024-02-28T08:01:17;98294.72;;;12.67;57.01
76195;BME280;64964;48.694;21.206;2024-02-28T08:03:43;98273.59;;;12.74;56.48
76195;BME280;64964;48.694;21.206;2024-02-28T08:06:08;98289.19;;;13.00;55.67
76195;BME280;64964;48.694;21.206;2024-02-28T08:08:35;98294.31;;;13.25;55.20
76195;BME280;64964;48.694;21.206;2024-02-28T08:11:00;98286.56;;;13.38;54.83
76195;BME280;64964;48.694;21.206;2024-02-28T08:13:25;98291.34;;;13.57;53.82
76195;BME280;64964;48.694;21.206;2024-02-28T08:15:53;98303.09;;;13.78;53.08
76195;BME280;64964;48.694;21.206;2024-02-28T08:18:19;98286.72;;;13.89;53.43
76195;BME280;64964;48.694;21.206;2024-02-28T08:20:45;98292.00;;;14.18;52.62
76195;BME280;64964;48.694;21.206;2024-02-28T08:23:10;98288.22;;;14.42;50.62
76195;BME280;64964;48.694;21.206;2024-02-28T08:25:35;98280.75;;;14.67;50.34
76195;BME280;64964;48.694;21.206;2024-02-28T08:28:00;98294.81;;;15.04;51.34
76195;BME280;64964;48.694;21.206;2024-02-28T08:30:26;98291.91;;;15.20;51.44
76195;BME280;64964;48.694;21.206;2024-02-28T08:32:51;98287.69;;;15.33;50.71
76195;BME280;64964;48.694;21.206;2024-02-28T08:35:18;98297.16;;;15.35;50.96
76195;BME280;64964;48.694;21.206;2024-02-28T08:37:44;98291.38;;;15.32;50.73
76195;BME280;64964;48.694;21.206;2024-02-28T08:40:10;98295.94;;;15.38;51.35
76195;BME280;64964;48.694;21.206;2024-02-28T08:42:36;98295.25;;;15.29;50.90
76195;BME280;64964;48.694;21.206;2024-02-28T08:45:01;98289.13;;;15.07;49.94
76195;BME280;64964;48.694;21.206;2024-02-28T08:47:28;98291.09;;;14.99;50.31
76195;BME280;64964;48.694;21.206;2024-02-28T08:49:54;98296.28;;;14.85;50.65
76195;BME280;64964;48.694;21.206;2024-02-28T08:52:20;98300.94;;;14.62;51.30
76195;BME280;64964;48.694;21.206;2024-02-28T08:54:46;98294.63;;;14.33;51.88
76195;BME280;64964;48.694;21.206;2024-02-28T08:57:11;98302.28;;;14.22;52.76
76195;BME280;64964;48.694;21.206;2024-02-28T08:59:37;98314.75;;;14.06;53.07
76195;BME280;64964;48.694;21.206;2024-02-28T09:02:02;98310.09;;;13.93;53.26
76195;BME280;64964;48.694;21.206;2024-02-28T09:04:28;98315.47;;;13.85;52.57
76195;BME280;64964;48.694;21.206;2024-02-28T09:06:54;98313.72;;;13.78;51.53
76195;BME280;64964;48.694;21.206;2024-02-28T09:09:19;98311.16;;;13.69;51.16
76195;BME280;64964;48.694;21.206;2024-02-28T09:11:44;98308.94;;;13.58;50.33
76195;BME280;64964;48.694;21.206;2024-02-28T09:14:10;98313.81;;;13.55;50.13
76195;BME280;64964;48.694;21.206;2024-02-28T09:16:35;98275.66;;;13.33;49.78
76195;BME280;64964;48.694;21.206;2024-02-28T09:19:00;98320.50;;;13.51;49.82
76195;BME280;64964;48.694;21.206;2024-02-28T09:21:26;98321.94;;;13.53;50.40
76195;BME280;64964;48.694;21.206;2024-02-28T09:23:51;98327.91;;;13.55;50.45
76195;BME280;64964;48.694;21.206;2024-02-28T09:26:16;98313.97;;;13.53;50.14
76195;BME280;64964;48.694;21.206;2024-02-28T09:28:42;98325.66;;;13.67;50.52
76195;BME280;64964;48.694;21.206;2024-02-28T09:31:07;98323.44;;;13.70;50.32
76195;BME280;64964;48.694;21.206;2024-02-28T09:33:34;98324.56;;;13.76;49.87
76195;BME280;64964;48.694;21.206;2024-02-28T09:36:01;98317.75;;;13.74;49.63
76195;BME280;64964;48.694;21.206;2024-02-28T09:38:27;98328.31;;;13.82;49.47
76195;BME280;64964;48.694;21.206;2024-02-28T09:40:52;98325.38;;;13.77;49.58
76195;BME280;64964;48.694;21.206;2024-02-28T09:43:40;98341.47;;;13.75;49.69
76195;BME280;64964;48.694;21.206;2024-02-28T09:46:06;98322.53;;;13.63;49.24
76195;BME280;64964;48.694;21.206;2024-02-28T09:48:32;98335.81;;;13.63;49.15
76195;BME280;64964;48.694;21.206;2024-02-28T09:50:59;98285.72;;;13.23;49.25
76195;BME280;64964;48.694;21.206;2024-02-28T09:53:25;98340.53;;;13.53;49.82
76195;BME280;64964;48.694;21.206;2024-02-28T09:55:51;98337.72;;;13.55;50.12
76195;BME280;64964;48.694;21.206;2024-02-28T09:58:18;98341.19;;;13.55;49.49
76195;BME280;64964;48.694;21.206;2024-02-28T10:00:44;98337.72;;;13.55;49.36
76195;BME280;64964;48.694;21.206;2024-02-28T10:03:18;98330.25;;;13.50;49.42
76195;BME280;64964;48.694;21.206;2024-02-28T10:05:48;98333.78;;;13.51;49.94
76195;BME280;64964;48.694;21.206;2024-02-28T10:08:14;98349.44;;;13.60;49.79
76195;BME280;64964;48.694;21.206;2024-02-28T10:10:49;98337.53;;;13.56;49.22
76195;BME280;64964;48.694;21.206;2024-02-28T10:13:19;98297.06;;;13.31;49.52
76195;BME280;64964;48.694;21.206;2024-02-28T10:15:44;98347.81;;;13.59;49.91
76195;BME280;64964;48.694;21.206;2024-02-28T10:18:10;98349.09;;;13.63;50.25
76195;BME280;64964;48.694;21.206;2024-02-28T10:20:36;98348.72;;;13.66;49.68
76195;BME280;64964;48.694;21.206;2024-02-28T10:23:05;98358.34;;;13.67;49.42
76195;BME280;64964;48.694;21.206;2024-02-28T10:25:31;98347.72;;;13.67;49.66
76195;BME280;64964;48.694;21.206;2024-02-28T10:28:01;98345.88;;;13.68;49.98
76195;BME280;64964;48.694;21.206;2024-02-28T10:30:27;98347.81;;;13.74;49.58
76195;BME280;64964;48.694;21.206;2024-02-28T10:32:52;98332.41;;;13.69;49.94
76195;BME280;64964;48.694;21.206;2024-02-28T10:35:18;98342.13;;;13.77;49.85
76195;BME280;64964;48.694;21.206;2024-02-28T10:37:52;98341.94;;;13.79;49.74
76195;BME280;64964;48.694;21.206;2024-02-28T10:40:19;98334.16;;;13.77;49.96
76195;BME280;64964;48.694;21.206;2024-02-28T10:42:46;98312.88;;;13.62;49.56
76195;BME280;64964;48.694;21.206;2024-02-28T10:45:13;98345.72;;;13.84;49.62
76195;BME280;64964;48.694;21.206;2024-02-28T10:47:39;98339.22;;;13.87;49.97
76195;BME280;64964;48.694;21.206;2024-02-28T10:50:05;98308.59;;;13.76;49.61
76195;BME280;64964;48.694;21.206;2024-02-28T10:52:33;98335.38;;;13.89;49.37
76195;BME280;64964;48.694;21.206;2024-02-28T10:54:59;98331.69;;;13.90;49.56
76195;BME280;64964;48.694;21.206;2024-02-28T10:57:29;98290.44;;;13.65;49.46
76195;BME280;64964;48.694;21.206;2024-02-28T10:59:55;98329.03;;;13.90;49.50
76195;BME280;64964;48.694;21.206;2024-02-28T11:02:22;98330.69;;;13.91;49.18
76195;BME280;64964;48.694;21.206;2024-02-28T11:04:51;98290.19;;;13.60;48.92
76195;BME280;64964;48.694;21.206;2024-02-28T11:07:20;98330.34;;;13.94;49.21
76195;BME280;64964;48.694;21.206;2024-02-28T11:09:47;98333.00;;;13.94;49.47
76195;BME280;64964;48.694;21.206;2024-02-28T11:12:26;98335.03;;;13.92;48.86
76195;BME280;64964;48.694;21.206;2024-02-28T11:15:16;98327.75;;;13.86;48.10
76195;BME280;64964;48.694;21.206;2024-02-28T11:17:42;98324.28;;;13.86;49.38
76195;BME280;64964;48.694;21.206;2024-02-28T11:20:11;98333.81;;;13.95;48.95
76195;BME280;64964;48.694;21.206;2024-02-28T11:22:39;98307.88;;;13.82;48.88
76195;BME280;64964;48.694;21.206;2024-02-28T11:25:05;98328.97;;;13.99;48.84
76195;BME280;64964;48.694;21.206;2024-02-28T11:27:31;98324.00;;;13.95;48.86
76195;BME280;64964;48.694;21.206;2024-02-28T11:29:57;98326.97;;;14.01;48.77
76195;BME280;64964;48.694;21.206;2024-02-28T11:32:24;98320.72;;;13.93;48.44
76195;BME280;64964;48.694;21.206;2024-02-28T11:34:50;98310.63;;;13.89;48.89
76195;BME280;64964;48.694;21.206;2024-02-28T11:37:18;98269.19;;;13.65;48.92
76195;BME280;64964;48.694;21.206;2024-02-28T11:39:47;98323.91;;;14.04;48.84
76195;BME280;64964;48.694;21.206;2024-02-28T11:42:14;98328.25;;;14.05;48.82
76195;BME280;64964;48.694;21.206;2024-02-28T11:44:40;98331.72;;;14.05;48.75
76195;BME280;64964;48.694;21.206;2024-02-28T11:47:08;98324.22;;;14.09;48.95
76195;BME280;64964;48.694;21.206;2024-02-28T11:49:34;98315.78;;;14.05;48.66
76195;BME280;64964;48.694;21.206;2024-02-28T11:52:00;98320.53;;;14.10;48.57
76195;BME280;64964;48.694;21.206;2024-02-28T11:54:25;98308.97;;;14.03;48.84
76195;BME280;64964;48.694;21.206;2024-02-28T11:56:50;98317.06;;;14.09;48.55
76195;BME280;64964;48.694;21.206;2024-02-28T11:59:16;98325.94;;;14.16;48.73
76195;BME280;64964;48.694;21.206;2024-02-28T12:01:42;98324.53;;;14.20;48.84
76195;BME280;64964;48.694;21.206;2024-02-28T12:04:09;98306.03;;;14.12;48.22
76195;BME280;64964;48.694;21.206;2024-02-28T12:06:36;98327.88;;;14.23;47.92
76195;BME280;64964;48.694;21.206;2024-02-28T12:09:10;98319.44;;;14.19;48.63
76195;BME280;64964;48.694;21.206;2024-02-28T12:11:37;98318.66;;;14.25;48.73
76195;BME280;64964;48.694;21.206;2024-02-28T12:14:03;98321.63;;;14.30;48.64
76195;BME280;64964;48.694;21.206;2024-02-28T12:16:30;98310.53;;;14.27;48.42
76195;BME280;64964;48.694;21.206;2024-02-28T12:18:55;98310.34;;;14.28;48.34
76195;BME280;64964;48.694;21.206;2024-02-28T12:21:21;98307.06;;;14.26;48.39
76195;BME280;64964;48.694;21.206;2024-02-28T12:23:46;98313.66;;;14.30;48.93
76195;BME280;64964;48.694;21.206;2024-02-28T12:26:18;98321.13;;;14.41;48.41
76195;BME280;64964;48.694;21.206;2024-02-28T12:28:44;98316.47;;;14.43;48.44
76195;BME280;64964;48.694;21.206;2024-02-28T12:31:10;98322.91;;;14.49;48.32
76195;BME280;64964;48.694;21.206;2024-02-28T12:33:37;98325.19;;;14.52;48.57
76195;BME280;64964;48.694;21.206;2024-02-28T12:36:02;98328.31;;;14.56;48.18
76195;BME280;64964;48.694;21.206;2024-02-28T12:38:29;98328.31;;;14.56;48.15
76195;BME280;64964;48.694;21.206;2024-02-28T12:40:55;98326.66;;;14.55;48.27
76195;BME280;64964;48.694;21.206;2024-02-28T12:43:20;98323.00;;;14.56;48.52
76195;BME280;64964;48.694;21.206;2024-02-28T12:45:45;98326.09;;;14.59;48.12
76195;BME280;64964;48.694;21.206;2024-02-28T12:48:11;98313.38;;;14.55;48.61